Time;durP1;ratioP1;P1;durP2;ratioP2;P2;SDS_P1;SDS_P2;PMS_P1;PMS_P2;Temp;Humidity;BMP_temperature;BMP_pressure;BME280_temperature;BME280_humidity;BME280_pressure;Samples;Min_cycle;Max_cycle;Signal;HPM_P1;HPM_P2
2023/01/12 00:02:11;;;;;;;6.63;2.05;;;;;;;7.39;100.00;100935.59;5027646;28;20029;-71
2023/01/12 00:04:36;;;;;;;10.57;2.08;;;;;;;7.40;100.00;100932.78;5026297;28;20030;-71
2023/01/12 00:07:06;;;;;;;13.75;2.58;;;;;;;7.43;100.00;100934.47;5026063;28;20518;-72
2023/01/12 00:09:31;;;;;;;8.68;2.20;;;;;;;7.44;100.00;100927.19;5008018;28;20038;-71
2023/01/12 00:11:56;;;;;;;9.93;2.67;;;;;;;7.46;100.00;100925.28;5026148;28;20499;-72
2023/01/12 00:14:22;;;;;;;5.28;2.33;;;;;;;7.48;100.00;100918.81;5023931;28;20033;-73
2023/01/12 00:16:47;;;;;;;11.55;2.13;;;;;;;7.49;100.00;100920.56;5026166;28;20586;-73
2023/01/12 00:19:17;;;;;;;13.82;2.50;;;;;;;7.52;100.00;100919.53;5025363;28;20120;-72
2023/01/12 00:21:52;;;;;;;8.52;2.65;;;;;;;7.54;100.00;100917.56;5023868;28;20152;-71
2023/01/12 00:24:18;;;;;;;10.02;2.47;;;;;;;7.55;100.00;100909.34;5039320;28;20045;-72
2023/01/12 00:26:44;;;;;;;8.45;2.22;;;;;;;7.55;100.00;100912.06;5025800;28;20026;-72
2023/01/12 00:29:10;;;;;;;9.30;2.67;;;;;;;7.53;100.00;100907.72;5023708;28;20452;-72
2023/01/12 00:31:35;;;;;;;9.60;2.88;;;;;;;7.56;100.00;100905.72;5026646;28;20045;-71
2023/01/12 00:34:01;;;;;;;10.48;2.38;;;;;;;7.58;100.00;100901.06;5026794;28;20037;-74
2023/01/12 00:36:26;;;;;;;8.50;2.60;;;;;;;7.57;100.00;100893.91;5033978;28;20156;-74
2023/01/12 00:38:51;;;;;;;12.75;2.92;;;;;;;7.59;100.00;100891.97;5023458;28;20068;-73
2023/01/12 00:45:20;;;;;;;15.20;3.30;;;;;;;7.60;100.00;100893.75;5025354;28;20049;-72
2023/01/12 00:46:47;;;;;;;10.52;2.65;;;;;;;7.63;100.00;100869.16;5043148;28;20456;-73
2023/01/12 00:49:13;;;;;;;11.85;2.53;;;;;;;7.62;100.00;100883.69;5025051;28;20171;-71
2023/01/12 00:51:39;;;;;;;15.07;2.72;;;;;;;7.63;100.00;100888.13;5012292;28;20045;-72
2023/01/12 00:54:07;;;;;;;11.40;2.60;;;;;;;7.59;100.00;100874.84;5030266;28;20124;-72
2023/01/12 00:56:33;;;;;;;13.27;2.72;;;;;;;7.63;100.00;100869.16;5028632;28;20409;-72
2023/01/12 00:58:58;;;;;;;18.70;3.75;;;;;;;7.64;100.00;100870.03;5041558;28;20041;-74
2023/01/12 01:01:24;;;;;;;12.35;3.40;;;;;;;7.65;100.00;100856.44;5048308;28;20116;-72
2023/01/12 01:03:49;;;;;;;14.25;2.83;;;;;;;7.64;100.00;100861.91;5032479;28;20045;-72
2023/01/12 01:06:15;;;;;;;10.85;2.85;;;;;;;7.63;100.00;100850.22;5029139;28;20611;-72
2023/01/12 01:08:40;;;;;;;9.85;2.55;;;;;;;7.65;100.00;100851.00;5029551;28;20036;-72
2023/01/12 01:11:09;;;;;;;8.00;2.42;;;;;;;7.65;100.00;100836.63;5028425;28;20057;-73
2023/01/12 01:13:35;;;;;;;12.63;2.88;;;;;;;7.66;100.00;100843.75;5029962;28;20045;-71
2023/01/12 01:16:02;;;;;;;13.73;3.38;;;;;;;7.66;100.00;100844.63;5028673;28;20043;-71
2023/01/12 01:18:28;;;;;;;16.20;6.28;;;;;;;7.65;100.00;100840.19;5028360;28;20040;-72
2023/01/12 01:20:53;;;;;;;11.13;3.10;;;;;;;7.67;100.00;100846.38;5027094;28;20041;-72
2023/01/12 01:23:19;;;;;;;12.57;3.25;;;;;;;7.69;100.00;100838.13;5047165;28;20029;-72
2023/01/12 01:25:44;;;;;;;11.20;3.03;;;;;;;7.70;100.00;100833.63;5032170;28;20056;-72
2023/01/12 01:28:10;;;;;;;9.50;3.05;;;;;;;7.68;100.00;100831.00;5011247;28;20045;-72
2023/01/12 01:30:35;;;;;;;16.60;3.38;;;;;;;7.66;100.00;100820.25;5011753;28;20037;-72
2023/01/12 01:33:00;;;;;;;17.42;3.78;;;;;;;7.67;100.00;100826.53;5032567;28;20044;-73
2023/01/12 01:35:26;;;;;;;15.85;3.28;;;;;;;7.68;100.00;100829.16;5027155;28;20497;-72
2023/01/12 01:37:51;;;;;;;16.52;3.05;;;;;;;7.68;100.00;100821.03;5027134;28;20457;-71
2023/01/12 01:40:16;;;;;;;19.45;3.83;;;;;;;7.67;100.00;100807.59;5027607;28;20084;-72
2023/01/12 01:42:42;;;;;;;20.17;3.45;;;;;;;7.67;100.00;100830.13;5027239;28;20025;-73
2023/01/12 01:45:11;;;;;;;12.93;3.38;;;;;;;7.68;100.00;100828.28;5028069;28;20041;-72
2023/01/12 01:47:44;;;;;;;10.13;3.13;;;;;;;7.68;100.00;100822.88;5032857;28;20424;-71
2023/01/12 01:50:28;;;;;;;14.30;3.60;;;;;;;7.69;100.00;100816.47;5028464;28;20041;-73
2023/01/12 01:52:59;;;;;;;16.17;4.05;;;;;;;7.69;100.00;100802.94;5040912;28;20097;-73
2023/01/12 01:55:37;;;;;;;12.85;3.67;;;;;;;7.65;100.00;100794.16;5046310;28;20036;-72
2023/01/12 01:58:23;;;;;;;14.95;3.40;;;;;;;7.68;100.00;100793.94;5042074;28;20034;-73
2023/01/12 02:00:48;;;;;;;15.60;3.20;;;;;;;7.67;100.00;100783.22;5027042;28;20045;-73
2023/01/12 02:03:16;;;;;;;12.15;2.35;;;;;;;7.66;100.00;100778.78;5036989;28;20132;-72
2023/01/12 02:05:45;;;;;;;17.67;3.05;;;;;;;7.67;100.00;100788.63;5047883;28;20025;-72
2023/01/12 02:08:32;;;;;;;16.30;3.40;;;;;;;7.67;100.00;100784.09;5029805;28;20034;-72
2023/01/12 02:11:00;;;;;;;14.57;2.78;;;;;;;7.64;100.00;100778.84;5026701;28;20497;-72
2023/01/12 02:16:19;;;;;;;11.63;3.03;;;;;;;7.64;100.00;100777.97;5032919;28;20431;-71
2023/01/12 02:18:57;;;;;;;13.32;3.05;;;;;;;7.63;100.00;100773.53;5030921;28;20045;-73
2023/01/12 02:21:38;;;;;;;14.73;3.25;;;;;;;7.62;100.00;100772.69;5031428;28;20131;-72
2023/01/12 02:24:43;;;;;;;14.38;3.28;;;;;;;7.64;100.00;100777.97;5029904;28;20376;-73
2023/01/12 02:27:30;;;;;;;14.27;3.75;;;;;;;7.63;100.00;100757.28;5009554;28;20081;-73
2023/01/12 02:30:04;;;;;;;15.75;3.15;;;;;;;7.64;100.00;100761.75;5026350;28;20041;-72
2023/01/12 02:33:07;;;;;;;15.85;3.22;;;;;;;7.64;100.00;100762.59;5031389;28;20469;-71
2023/01/12 02:35:51;;;;;;;15.43;2.95;;;;;;;7.65;100.00;100749.97;5027091;28;20049;-73
2023/01/12 02:38:25;;;;;;;20.15;3.55;;;;;;;7.65;100.00;100745.41;5027667;28;20033;-73
2023/01/12 02:42:39;;;;;;;13.80;2.95;;;;;;;7.64;100.00;100743.66;5027497;28;20307;-71
2023/01/12 02:44:08;;;;;;;17.95;3.00;;;;;;;7.67;100.00;100732.66;5027321;28;20053;-73
2023/01/12 02:46:34;;;;;;;10.68;2.63;;;;;;;7.71;100.00;100735.19;5028009;28;20523;-72
2023/01/12 02:49:09;;;;;;;16.73;3.10;;;;;;;7.71;100.00;100729.75;5026077;28;20037;-72
2023/01/12 02:51:44;;;;;;;21.17;3.90;;;;;;;7.72;100.00;100732.34;5026615;28;20045;-73
2023/01/12 02:54:13;;;;;;;12.88;3.13;;;;;;;7.72;100.00;100728.78;5026583;28;20041;-72
2023/01/12 02:57:09;;;;;;;15.40;2.78;;;;;;;7.74;100.00;100727.75;5046474;28;20132;-72
2023/01/12 02:59:40;;;;;;;9.52;2.50;;;;;;;7.73;100.00;100714.28;5026401;28;20132;-72
2023/01/12 03:02:09;;;;;;;9.55;2.40;;;;;;;7.72;100.00;100708.00;5026513;28;20484;-73
2023/01/12 03:04:35;;;;;;;16.00;2.53;;;;;;;7.74;100.00;100707.88;5026543;28;20056;-73
2023/01/12 03:07:00;;;;;;;9.55;2.65;;;;;;;7.76;100.00;100700.56;5025400;28;20481;-72
2023/01/12 03:09:49;;;;;;;22.00;4.03;;;;;;;7.74;100.00;100688.94;5025994;28;20033;-72
2023/01/12 03:12:32;;;;;;;9.82;2.75;;;;;;;7.75;100.00;100677.16;5009699;28;20037;-72
2023/01/12 03:15:02;;;;;;;12.27;2.63;;;;;;;7.74;100.00;100657.34;5026151;28;20128;-73
2023/01/12 03:17:33;;;;;;;11.45;2.83;;;;;;;7.75;100.00;100650.94;5027285;28;20483;-73
2023/01/12 03:20:05;;;;;;;12.27;2.85;;;;;;;7.75;100.00;100650.06;5009375;28;20033;-74
2023/01/12 03:22:35;;;;;;;15.27;2.80;;;;;;;7.76;100.00;100652.69;5025479;28;20041;-72
2023/01/12 03:25:03;;;;;;;16.02;2.60;;;;;;;7.73;100.00;100644.72;5036933;28;20064;-72
2023/01/12 03:27:39;;;;;;;16.77;2.40;;;;;;;7.76;100.00;100628.31;5026719;28;20034;-72
2023/01/12 03:30:09;;;;;;;9.35;2.67;;;;;;;7.78;100.00;100636.31;5027273;28;20076;-72
2023/01/12 03:32:35;;;;;;;9.52;2.35;;;;;;;7.78;100.00;100639.03;5027700;28;20041;-72
2023/01/12 03:35:01;;;;;;;12.55;2.88;;;;;;;7.78;100.00;100633.59;5025063;28;20458;-72
2023/01/12 03:37:33;;;;;;;16.95;2.65;;;;;;;7.78;100.00;100626.34;5025076;28;20030;-73
2023/01/12 03:40:08;;;;;;;18.42;2.28;;;;;;;7.79;100.00;100633.53;5026782;28;20163;-71
2023/01/12 03:43:02;;;;;;;9.60;1.88;;;;;;;7.78;100.00;100618.22;5025506;28;20041;-72
2023/01/12 03:45:31;;;;;;;7.85;2.10;;;;;;;7.80;100.00;100610.91;5026462;28;20570;-73
2023/01/12 03:48:04;;;;;;;9.95;2.60;;;;;;;7.78;100.00;100612.81;5025433;28;20403;-72
2023/01/12 03:50:38;;;;;;;16.55;2.80;;;;;;;7.81;100.00;100598.22;5025003;28;20041;-72
2023/01/12 03:53:06;;;;;;;5.78;2.17;;;;;;;7.82;100.00;100581.84;5027039;28;20079;-71
2023/01/12 03:55:34;;;;;;;9.98;2.08;;;;;;;7.82;100.00;100581.00;5026548;28;20057;-72
2023/01/12 03:58:00;;;;;;;14.98;2.70;;;;;;;7.79;100.00;100551.44;5025409;28;20041;-73
2023/01/12 04:00:28;;;;;;;7.88;2.45;;;;;;;7.79;100.00;100540.59;5024938;28;20396;-73
2023/01/12 04:03:08;;;;;;;5.95;1.75;;;;;;;7.78;100.00;100550.53;5025515;28;20115;-72
2023/01/12 04:05:33;;;;;;;10.88;1.67;;;;;;;7.81;100.00;100549.47;5026493;28;20120;-71
2023/01/12 04:07:59;;;;;;;10.45;2.45;;;;;;;7.82;100.00;100532.25;5025752;28;20124;-72
2023/01/12 04:10:24;;;;;;;11.00;2.30;;;;;;;7.80;100.00;100526.06;5020226;28;20094;-72
2023/01/12 04:12:49;;;;;;;9.38;3.03;;;;;;;7.79;100.00;100513.50;5041162;28;20037;-73
2023/01/12 04:15:15;;;;;;;11.85;2.40;;;;;;;7.77;100.00;100510.88;5026531;28;20041;-74
2023/01/12 04:17:40;;;;;;;9.57;1.98;;;;;;;7.79;100.00;100508.97;5026579;28;20021;-73
2023/01/12 04:20:08;;;;;;;5.90;1.98;;;;;;;7.75;100.00;100491.19;5027156;28;20121;-72
2023/01/12 04:22:42;;;;;;;11.98;2.40;;;;;;;7.77;100.00;100494.63;5040160;28;20094;-73
2023/01/12 04:25:12;;;;;;;10.45;2.25;;;;;;;7.77;100.00;100478.41;5032065;28;20041;-75
2023/01/12 04:27:49;;;;;;;15.32;2.47;;;;;;;7.80;100.00;100488.16;5029660;28;20038;-77
2023/01/12 04:30:17;;;;;;;11.70;2.45;;;;;;;7.80;100.00;100480.03;5030639;28;20053;-73
2023/01/12 04:32:43;;;;;;;10.10;2.28;;;;;;;7.77;100.00;100469.41;5035819;28;20116;-73
2023/01/12 04:35:11;;;;;;;11.55;2.50;;;;;;;7.76;100.00;100470.38;5048834;28;20548;-73
2023/01/12 04:37:36;;;;;;;10.13;2.10;;;;;;;7.77;100.00;100456.72;5034786;28;20461;-73
2023/01/12 04:40:03;;;;;;;9.57;2.15;;;;;;;7.78;100.00;100461.16;5028134;28;20119;-74
2023/01/12 04:45:12;;;;;;;13.50;2.45;;;;;;;7.78;100.00;100430.50;5040595;28;20043;-74
2023/01/12 04:47:38;;;;;;;13.68;3.28;;;;;;;7.77;100.00;100399.88;5044716;28;20025;-75
2023/01/12 04:50:04;;;;;;;9.73;2.13;;;;;;;7.77;100.00;100426.09;5030831;28;20485;-72
2023/01/12 04:52:29;;;;;;;8.65;1.73;;;;;;;7.78;100.00;100416.97;5012303;28;20095;-74
2023/01/12 04:54:54;;;;;;;7.20;1.92;;;;;;;7.78;100.00;100407.00;5036316;28;20053;-73
2023/01/12 04:57:20;;;;;;;11.73;2.25;;;;;;;7.76;100.00;100387.31;5048724;28;20036;-73
2023/01/12 04:59:45;;;;;;;10.73;2.15;;;;;;;7.76;100.00;100403.56;5042478;28;20044;-73
2023/01/12 05:02:11;;;;;;;16.33;2.30;;;;;;;7.76;100.00;100406.25;5029823;28;20451;-73
2023/01/12 05:04:36;;;;;;;19.42;2.10;;;;;;;7.79;100.00;100410.63;5028756;28;20033;-72
2023/01/12 05:07:01;;;;;;;7.82;2.03;;;;;;;7.81;100.00;100387.00;5029530;28;20397;-73
2023/01/12 05:12:11;;;;;;;8.20;1.58;;;;;;;7.79;100.00;100405.19;5029802;28;20063;-73
2023/01/12 05:14:36;;;;;;;11.15;2.00;;;;;;;7.78;100.00;100412.44;5028000;28;20029;-74
2023/01/12 05:17:02;;;;;;;7.18;2.50;;;;;;;7.81;100.00;100411.38;5029398;28;20029;-73
2023/01/12 05:19:27;;;;;;;10.00;1.92;;;;;;;7.83;100.00;100418.44;5028148;28;20044;-74
2023/01/12 05:21:52;;;;;;;10.80;1.85;;;;;;;7.82;100.00;100410.38;5029002;28;20038;-72
2023/01/12 05:24:18;;;;;;;12.02;2.40;;;;;;;7.83;100.00;100404.00;5044418;28;20053;-73
2023/01/12 05:26:43;;;;;;;11.73;4.55;;;;;;;7.83;100.00;100414.81;5029344;28;20037;-72
2023/01/12 05:29:10;;;;;;;10.63;2.05;;;;;;;7.83;100.00;100410.31;5027298;28;20114;-73
2023/01/12 05:31:35;;;;;;;10.88;1.98;;;;;;;7.82;100.00;100396.84;5030048;28;20424;-72
2023/01/12 05:34:01;;;;;;;12.68;2.03;;;;;;;7.81;100.00;100378.88;5028982;28;20026;-73
2023/01/12 05:36:26;;;;;;;8.40;2.00;;;;;;;7.82;100.00;100388.72;5029097;28;20144;-74
2023/01/12 05:38:51;;;;;;;9.32;2.22;;;;;;;7.79;100.00;100388.94;5030784;28;20459;-73
2023/01/12 05:41:17;;;;;;;11.52;2.80;;;;;;;7.82;100.00;100380.59;5027573;28;20444;-73
2023/01/12 05:43:49;;;;;;;10.73;1.80;;;;;;;7.82;100.00;100388.72;5028802;28;20037;-74
2023/01/12 05:46:15;;;;;;;11.10;1.98;;;;;;;7.82;100.00;100391.44;5048969;28;20480;-72
2023/01/12 05:48:41;;;;;;;12.02;2.58;;;;;;;7.80;100.00;100377.16;5026426;28;20128;-72
2023/01/12 05:51:08;;;;;;;10.43;3.33;;;;;;;7.82;100.00;100392.28;5029034;28;20377;-73
2023/01/12 05:53:33;;;;;;;6.47;2.00;;;;;;;7.82;100.00;100380.59;5029343;28;20029;-75
2023/01/12 05:56:09;;;;;;;11.48;2.00;;;;;;;7.84;100.00;100387.66;5027113;28;20377;-72
2023/01/12 05:58:34;;;;;;;8.90;1.98;;;;;;;7.82;100.00;100378.75;5027923;28;20132;-74
2023/01/12 06:00:59;;;;;;;7.90;1.77;;;;;;;7.84;100.00;100374.13;5045648;28;20096;-73
2023/01/12 06:03:25;;;;;;;15.32;3.20;;;;;;;7.84;100.00;100371.41;5036475;28;20060;-72
2023/01/12 06:05:57;;;;;;;6.50;1.65;;;;;;;7.84;100.00;100371.41;5026829;28;20038;-72
2023/01/12 06:08:22;;;;;;;9.87;1.93;;;;;;;7.85;100.00;100366.84;5039117;28;20114;-73
2023/01/12 06:10:48;;;;;;;11.93;1.90;;;;;;;7.88;100.00;100372.03;5034067;28;20368;-73
2023/01/12 06:16:07;;;;;;;13.05;1.75;;;;;;;7.91;100.00;100382.69;5026697;28;20045;-73
2023/01/12 06:18:35;;;;;;;5.82;1.55;;;;;;;7.95;100.00;100388.75;5027578;28;20136;-74
2023/01/12 06:21:01;;;;;;;7.45;1.60;;;;;;;7.97;100.00;100376.81;5027880;28;20476;-72
2023/01/12 06:23:26;;;;;;;7.47;1.60;;;;;;;7.96;100.00;100371.53;5028415;28;20534;-74
2023/01/12 06:25:51;;;;;;;8.05;1.40;;;;;;;7.97;100.00;100382.25;5041748;28;20120;-72
2023/01/12 06:28:17;;;;;;;8.20;1.73;;;;;;;8.00;100.00;100398.28;5047985;28;20396;-73
2023/01/12 06:30:42;;;;;;;4.22;1.35;;;;;;;8.01;100.00;100391.03;5031303;28;20591;-71
2023/01/12 06:33:07;;;;;;;5.00;1.45;;;;;;;8.02;100.00;100377.41;5027113;28;20029;-74
2023/01/12 06:35:33;;;;;;;5.32;1.48;;;;;;;8.05;100.00;100389.84;5026638;28;20076;-73
2023/01/12 06:37:58;;;;;;;2.97;1.52;;;;;;;8.06;100.00;100378.03;5027072;28;20036;-73
2023/01/12 06:40:23;;;;;;;2.10;1.20;;;;;;;8.07;100.00;100367.13;5009985;28;20060;-74
2023/01/12 06:42:49;;;;;;;7.28;1.27;;;;;;;8.09;100.00;100380.53;5027893;28;20451;-73
2023/01/12 06:45:14;;;;;;;8.38;1.40;;;;;;;8.08;100.00;100382.38;5027705;28;20103;-73
2023/01/12 06:47:58;;;;;;;4.30;1.25;;;;;;;8.11;100.00;100381.28;5027927;28;20112;-73
2023/01/12 06:50:24;;;;;;;3.42;1.40;;;;;;;8.10;100.00;100366.00;5026830;28;20045;-73
2023/01/12 06:52:49;;;;;;;4.43;1.75;;;;;;;8.14;100.00;100389.22;5026022;28;20122;-74
2023/01/12 06:55:15;;;;;;;5.78;1.23;;;;;;;8.16;100.00;100396.28;5027062;28;20052;-74
2023/01/12 06:57:40;;;;;;;5.68;1.23;;;;;;;8.15;100.00;100389.09;5028027;28;20402;-73
2023/01/12 07:00:06;;;;;;;3.55;1.40;;;;;;;8.17;100.00;100389.00;5037956;28;20037;-73
2023/01/12 07:02:32;;;;;;;6.13;1.33;;;;;;;8.16;100.00;100366.47;5041076;28;20037;-73
2023/01/12 07:04:57;;;;;;;3.00;1.05;;;;;;;8.17;100.00;100376.31;5027594;28;20804;-73
2023/01/12 07:07:22;;;;;;;6.53;1.45;;;;;;;8.20;100.00;100380.63;5025801;28;20030;-72
2023/01/12 07:09:48;;;;;;;4.97;1.50;;;;;;;8.20;100.00;100372.50;5026065;28;20033;-73
2023/01/12 07:12:13;;;;;;;4.15;1.35;;;;;;;8.20;100.00;100358.97;5027686;28;20090;-73
2023/01/12 07:14:39;;;;;;;3.38;1.05;;;;;;;8.22;100.00;100377.84;5025325;28;20034;-73
2023/01/12 07:17:04;;;;;;;2.67;1.00;;;;;;;8.23;100.00;100380.44;5026474;28;20111;-73
2023/01/12 07:19:29;;;;;;;2.72;1.15;;;;;;;8.22;100.00;100381.41;5045538;28;20044;-72
2023/01/12 07:21:55;;;;;;;12.02;1.85;;;;;;;8.21;100.00;100371.56;5038091;28;20029;-72
2023/01/12 07:24:20;;;;;;;4.13;1.35;;;;;;;8.26;100.00;100382.09;5025722;28;20041;-73
2023/01/12 07:26:49;;;;;;;2.97;1.23;;;;;;;8.24;100.00;100384.00;5026029;28;20488;-73
2023/01/12 07:29:15;;;;;;;3.92;1.55;;;;;;;8.28;100.00;100390.97;5024959;28;20025;-74
2023/01/12 07:31:40;;;;;;;3.60;1.23;;;;;;;8.29;100.00;100385.41;5027880;28;20377;-74
2023/01/12 07:34:05;;;;;;;8.60;1.17;;;;;;;8.26;100.00;100385.66;5028731;28;20140;-72
2023/01/12 07:36:31;;;;;;;7.05;1.40;;;;;;;8.29;100.00;100389.97;5027120;28;20080;-72
2023/01/12 07:38:57;;;;;;;4.32;1.00;;;;;;;8.33;100.00;100386.06;5026206;28;20087;-75
2023/01/12 07:44:07;;;;;;;6.07;1.30;;;;;;;8.31;100.00;100397.03;5043739;28;20033;-73
2023/01/12 07:46:33;;;;;;;1.55;1.27;;;;;;;8.33;100.00;100413.19;5044675;28;20037;-72
2023/01/12 07:48:59;;;;;;;7.18;1.50;;;;;;;8.35;100.00;100405.81;5045392;28;20039;-73
2023/01/12 07:51:24;;;;;;;3.58;1.20;;;;;;;8.36;100.00;100396.72;5045822;28;20041;-72
2023/01/12 07:53:50;;;;;;;4.15;1.20;;;;;;;8.35;100.00;100413.97;5033687;28;20044;-73
2023/01/12 07:56:15;;;;;;;2.38;1.23;;;;;;;8.37;100.00;100417.44;5027279;28;20116;-73
2023/01/12 07:58:42;;;;;;;4.95;1.02;;;;;;;8.39;100.00;100412.78;5027393;28;20037;-74
2023/01/12 08:01:07;;;;;;;3.03;1.30;;;;;;;8.39;100.00;100416.38;5025841;28;20126;-73
2023/01/12 08:03:33;;;;;;;5.63;1.15;;;;;;;8.39;100.00;100407.34;5038780;28;20503;-73
2023/01/12 08:06:00;;;;;;;3.50;1.15;;;;;;;8.43;100.00;100407.03;5045068;28;21122;-72
2023/01/12 08:08:25;;;;;;;4.75;1.33;;;;;;;8.44;100.00;100410.63;5046919;28;20123;-72
2023/01/12 08:10:50;;;;;;;4.60;1.40;;;;;;;8.43;100.00;100434.13;5014935;28;20115;-73
2023/01/12 08:13:21;;;;;;;5.13;1.35;;;;;;;8.45;100.00;100420.50;5025892;28;20461;-74
2023/01/12 08:15:50;;;;;;;2.80;1.10;;;;;;;8.48;100.00;100428.38;5025413;28;20033;-73
2023/01/12 08:18:30;;;;;;;5.57;1.20;;;;;;;8.50;100.00;100428.31;5027045;28;20025;-73
2023/01/12 08:20:58;;;;;;;1.85;1.48;;;;;;;8.51;100.00;100436.31;5026249;28;20100;-72
2023/01/12 08:23:33;;;;;;;3.22;1.38;;;;;;;8.51;100.00;100433.59;5026970;28;20551;-73
2023/01/12 08:26:03;;;;;;;4.80;1.73;;;;;;;8.52;100.00;100429.91;5025459;28;20087;-73
2023/01/12 08:28:39;;;;;;;4.47;1.25;;;;;;;8.53;100.00;100445.19;5025404;28;20053;-74
2023/01/12 08:31:08;;;;;;;3.83;1.25;;;;;;;8.54;100.00;100441.53;5026653;28;20040;-73
2023/01/12 08:33:35;;;;;;;4.07;1.40;;;;;;;8.56;100.00;100434.16;5028525;28;20034;-73
2023/01/12 08:36:03;;;;;;;1.85;1.20;;;;;;;8.56;100.00;100453.13;5025895;28;20526;-73
2023/01/12 08:38:29;;;;;;;3.63;1.17;;;;;;;8.57;100.00;100441.28;5025357;28;20037;-72
2023/01/12 08:46:22;;;;;;;3.17;1.40;;;;;;;8.61;100.00;100445.53;5025567;28;20044;-72
2023/01/12 08:48:47;;;;;;;5.30;2.05;;;;;;;8.58;100.00;100444.88;5038603;28;20025;-73
2023/01/12 08:51:13;;;;;;;3.30;1.30;;;;;;;8.66;100.00;100450.63;5045087;28;20036;-73
2023/01/12 08:53:38;;;;;;;6.05;1.40;;;;;;;8.69;100.00;100458.56;5044624;28;20025;-73
2023/01/12 08:56:04;;;;;;;2.00;1.60;;;;;;;8.70;100.00;100457.56;5030812;28;20063;-72
2023/01/12 08:58:30;;;;;;;4.07;1.65;;;;;;;8.72;100.00;100461.06;5025432;28;20195;-73
2023/01/12 09:00:55;;;;;;;2.53;1.55;;;;;;;8.74;100.00;100464.53;5026258;28;20049;-73
2023/01/12 09:03:21;;;;;;;3.95;1.50;;;;;;;8.77;100.00;100467.03;5026351;28;20026;-72
2023/01/12 09:05:47;;;;;;;4.70;1.25;;;;;;;8.79;100.00;100475.91;5024695;28;20038;-72
2023/01/12 09:08:13;;;;;;;2.72;1.25;;;;;;;8.80;100.00;100482.19;5026493;28;20042;-73
2023/01/12 09:10:38;;;;;;;4.43;1.33;;;;;;;8.80;100.00;100485.78;5037846;28;20044;-72
2023/01/12 09:13:03;;;;;;;3.00;1.63;;;;;;;8.82;100.00;100486.56;5046620;28;20131;-72
2023/01/12 09:15:29;;;;;;;3.17;1.52;;;;;;;8.83;100.00;100482.00;5036512;28;20901;-73
2023/01/12 09:17:54;;;;;;;5.65;1.60;;;;;;;8.82;100.00;100485.69;5028863;28;20538;-74
2023/01/12 09:20:20;;;;;;;3.38;1.80;;;;;;;8.84;100.00;100491.84;5029711;28;20049;-74
2023/01/12 09:22:45;;;;;;;3.63;1.30;;;;;;;8.87;100.00;100492.50;5029623;28;20488;-73
2023/01/12 09:25:11;;;;;;;4.97;1.40;;;;;;;8.89;100.00;100505.97;5012063;28;20037;-73
2023/01/12 09:27:37;;;;;;;2.83;1.17;;;;;;;8.90;100.00;100497.69;5029072;28;20033;-73
2023/01/12 09:30:03;;;;;;;3.25;2.10;;;;;;;8.92;100.00;100500.31;5029548;28;20037;-73
2023/01/12 09:32:29;;;;;;;2.55;1.30;;;;;;;8.96;100.00;100498.28;5034834;28;20041;-73
2023/01/12 09:34:54;;;;;;;3.10;1.30;;;;;;;8.96;100.00;100499.13;5027902;28;20034;-72
2023/01/12 09:37:19;;;;;;;4.43;2.63;;;;;;;8.96;100.00;100496.41;5047258;28;20041;-73
2023/01/12 09:39:45;;;;;;;3.42;1.10;;;;;;;8.97;100.00;100491.84;5043226;28;20400;-74
2023/01/12 09:48:12;;;;;;;1.98;0.95;;;;;;;9.03;100.00;100505.84;5029994;28;20053;-73
2023/01/12 09:50:54;;;;;;;1.20;1.00;;;;;;;9.06;100.00;100512.91;5027826;28;20034;-72
2023/01/12 09:53:41;;;;;;;1.33;0.95;;;;;;;9.06;100.00;100519.19;5028145;28;20037;-72
2023/01/12 09:56:24;;;;;;;1.63;0.70;;;;;;;9.09;100.00;100510.84;5028645;28;20120;-73
2023/01/12 09:59:12;;;;;;;2.72;0.80;;;;;;;9.12;100.00;100518.75;5035071;28;20116;-72
2023/01/12 10:01:37;;;;;;;1.45;0.90;;;;;;;9.10;100.00;100528.88;5049599;28;20434;-73
2023/01/12 10:04:04;;;;;;;1.45;0.93;;;;;;;9.14;100.00;100530.38;5030788;28;20105;-73
2023/01/12 10:06:30;;;;;;;1.20;0.70;;;;;;;9.15;100.00;100526.69;5028815;28;20049;-72
2023/01/12 10:08:57;;;;;;;1.52;0.88;;;;;;;9.17;100.00;100532.00;5028922;28;20084;-72
2023/01/12 10:11:41;;;;;;;1.92;1.15;;;;;;;9.17;100.00;100532.84;5044450;28;20399;-73
2023/01/12 10:14:24;;;;;;;1.98;1.20;;;;;;;9.18;100.00;100536.44;5046430;28;20068;-73
2023/01/12 10:17:18;;;;;;;1.95;0.95;;;;;;;9.19;100.00;100530.06;5028962;28;20091;-74
2023/01/12 10:19:43;;;;;;;;;;;;;;;9.22;100.00;100534.38;5029121;28;20116;-72
2023/01/12 10:22:35;;;;;;;1.27;1.10;;;;;;;9.20;100.00;100532.66;5029094;28;20027;-72
2023/01/12 10:25:23;;;;;;;4.18;1.10;;;;;;;9.23;100.00;100533.38;5034059;28;20045;-72
2023/01/12 10:27:51;;;;;;;0.95;0.90;;;;;;;9.23;100.00;100536.09;5048826;28;20396;-74
2023/01/12 10:30:19;;;;;;;0.70;0.70;;;;;;;9.24;100.00;100527.00;5035888;28;20527;-75
2023/01/12 10:32:44;;;;;;;6.85;1.25;;;;;;;9.23;100.00;100531.53;5032816;28;20362;-73
2023/01/12 10:35:14;;;;;;;1.45;0.77;;;;;;;9.25;100.00;100534.16;5028299;28;20041;-75
2023/01/12 10:37:55;;;;;;;3.60;0.77;;;;;;;9.27;100.00;100534.91;5045500;28;20388;-73
2023/01/12 10:40:30;;;;;;;3.25;0.95;;;;;;;9.26;100.00;100534.03;5029374;28;20049;-73
2023/01/12 10:43:27;;;;;;;3.05;0.77;;;;;;;9.24;100.00;100519.72;5027418;28;20116;-73
2023/01/12 10:46:15;;;;;;;1.30;0.70;;;;;;;9.29;100.00;100539.25;5026687;28;20045;-73
2023/01/12 10:48:44;;;;;;;4.00;1.05;;;;;;;9.29;100.00;100513.97;5026962;28;20124;-73
2023/01/12 10:51:26;;;;;;;0.85;0.85;;;;;;;9.32;100.00;100519.16;5028413;28;20029;-72
2023/01/12 10:54:17;;;;;;;0.80;0.80;;;;;;;9.35;100.00;100532.53;5026523;28;20125;-73
2023/01/12 10:56:57;;;;;;;0.90;0.80;;;;;;;9.35;100.00;100522.53;5048113;28;20714;-72
2023/01/12 10:59:36;;;;;;;1.23;0.70;;;;;;;9.38;100.00;100527.75;5043006;28;20033;-73
2023/01/12 11:02:05;;;;;;;0.85;0.80;;;;;;;9.37;100.00;100520.59;5028000;28;20396;-72
2023/01/12 11:04:38;;;;;;;2.05;0.77;;;;;;;9.38;100.00;100527.75;5027482;28;20025;-72
2023/01/12 11:07:29;;;;;;;2.88;0.68;;;;;;;9.39;100.00;100523.19;5026386;28;20524;-73
2023/01/12 11:10:19;;;;;;;1.67;0.70;;;;;;;9.39;100.00;100532.19;5027597;28;20119;-73
2023/01/12 11:12:54;;;;;;;3.63;1.40;;;;;;;9.40;100.00;100523.06;5023336;28;20140;-72
2023/01/12 11:15:19;;;;;;;1.02;0.70;;;;;;;9.39;100.00;100525.88;5026435;28;20369;-73
2023/01/12 11:18:10;;;;;;;1.67;0.90;;;;;;;9.41;100.00;100532.94;5026396;28;20088;-74
2023/01/12 11:20:45;;;;;;;0.95;0.85;;;;;;;9.44;100.00;100529.13;5027435;28;20519;-73
2023/01/12 11:23:36;;;;;;;2.97;0.98;;;;;;;9.44;100.00;100521.84;5026585;28;20041;-72
2023/01/12 11:26:14;;;;;;;1.55;0.70;;;;;;;9.45;100.00;100529.00;5027679;28;20120;-73
2023/01/12 11:28:51;;;;;;;1.73;0.90;;;;;;;9.45;100.00;100529.00;5010159;28;20033;-75
2023/01/12 11:31:41;;;;;;;1.00;0.80;;;;;;;9.45;100.00;100526.28;5009843;28;20161;-74
2023/01/12 11:34:21;;;;;;;5.68;1.65;;;;;;;9.46;100.00;100521.72;5026467;28;20499;-74
2023/01/12 11:36:51;;;;;;;1.92;0.80;;;;;;;9.46;100.00;100521.72;5025249;28;20040;-74
2023/01/12 11:39:23;;;;;;;1.10;0.80;;;;;;;9.47;100.00;100530.78;5027065;28;20037;-74
2023/01/12 11:44:54;;;;;;;1.80;0.90;;;;;;;9.47;100.00;100518.06;5027967;28;20310;-73
2023/01/12 11:47:34;;;;;;;0.88;0.80;;;;;;;9.46;100.00;100516.31;5025960;28;20044;-72
2023/01/12 11:50:28;;;;;;;0.70;0.70;;;;;;;9.46;100.00;100519.00;5026951;28;20099;-73
2023/01/12 11:52:55;;;;;;;0.80;0.80;;;;;;;9.47;100.00;100520.78;5025733;28;20508;-73
2023/01/12 11:55:40;;;;;;;1.52;1.10;;;;;;;9.45;100.00;100506.44;5027042;28;20041;-73
2023/01/12 11:58:24;;;;;;;1.23;1.00;;;;;;;9.46;100.00;100510.88;5027912;28;20037;-72
2023/01/12 12:01:20;;;;;;;0.85;0.70;;;;;;;9.45;100.00;100499.16;5025459;28;20520;-73
2023/01/12 12:03:56;;;;;;;1.77;0.90;;;;;;;9.48;100.00;100510.78;5025525;28;20099;-73
2023/01/12 12:06:34;;;;;;;1.35;0.80;;;;;;;9.43;100.00;100490.25;5025733;28;20079;-73
2023/01/12 12:09:09;;;;;;;1.42;0.80;;;;;;;9.50;100.00;100497.94;5026532;28;20537;-74